Time;durP1;ratioP1;P1;durP2;ratioP2;P2;SDS_P1;SDS_P2;PMS_P1;PMS_P2;Temp;Humidity;BMP_temperature;BMP_pressure;BME280_temperature;BME280_humidity;BME280_pressure;Samples;Min_cycle;Max_cycle;Signal;HPM_P1;HPM_P2
2021/11/30 00:05:08;;;;;;;7.13;3.40;;;0.40;99.90;;;;;;20704986;28;20029;-73
2021/11/30 00:15:09;;;;;;;7.80;3.08;;;0.40;99.90;;;;;;20702692;28;20030;-73
2021/11/30 00:25:10;;;;;;;12.25;3.60;;;0.40;99.90;;;;;;20698054;28;20030;-74
2021/11/30 00:35:11;;;;;;;3.65;2.58;;;0.50;99.90;;;;;;20662530;28;20052;-73
2021/11/30 00:45:16;;;;;;;7.38;2.75;;;0.60;99.90;;;;;;20675873;28;20041;-75
2021/11/30 00:55:18;;;;;;;8.38;3.00;;;0.70;99.90;;;;;;20675019;28;20073;-75
2021/11/30 01:05:19;;;;;;;3.78;2.20;;;0.70;99.90;;;;;;20677045;28;20401;-75
2021/11/30 01:15:21;;;;;;;5.38;2.50;;;0.70;99.90;;;;;;20680100;28;20089;-73
2021/11/30 01:25:22;;;;;;;11.45;3.22;;;0.60;99.90;;;;;;20674758;28;20057;-74
2021/11/30 01:35:23;;;;;;;7.32;2.05;;;0.60;99.90;;;;;;20656292;28;20075;-72
2021/11/30 01:55:31;;;;;;;5.85;2.25;;;0.70;99.90;;;;;;20672095;28;20042;-74
2021/11/30 02:05:37;;;;;;;11.68;2.40;;;0.70;99.90;;;;;;20702851;23;20041;-79
2021/11/30 02:15:40;;;;;;;2.95;1.50;;;0.70;99.90;;;;;;20840286;28;20522;-79
2021/11/30 02:25:42;;;;;;;3.13;1.90;;;0.70;99.90;;;;;;20860072;28;20037;-78
2021/11/30 02:35:43;;;;;;;3.17;1.67;;;0.70;99.90;;;;;;20863226;28;20499;-79
2021/11/30 02:45:44;;;;;;;2.55;1.67;;;0.70;99.90;;;;;;20862501;28;20033;-79
2021/11/30 02:55:45;;;;;;;7.20;2.03;;;0.70;99.90;;;;;;20856998;28;20127;-79
2021/11/30 03:05:46;;;;;;;3.85;1.67;;;0.70;99.90;;;;;;20859147;28;20099;-79
2021/11/30 03:15:53;;;;;;;5.85;1.98;;;0.70;99.90;;;;;;20859807;28;20602;-79
2021/11/30 03:25:54;;;;;;;4.07;1.73;;;0.60;99.90;;;;;;20842418;28;20037;-77
2021/11/30 03:35:55;;;;;;;1.83;1.25;;;0.60;99.90;;;;;;20859264;28;20527;-78
2021/11/30 03:45:56;;;;;;;2.85;1.63;;;0.60;99.90;;;;;;20858651;28;20523;-79
2021/11/30 03:55:57;;;;;;;2.50;1.20;;;0.70;99.90;;;;;;20859163;28;20026;-79
2021/11/30 04:05:57;;;;;;;2.08;1.30;;;0.70;99.90;;;;;;20856287;28;20041;-79
2021/11/30 04:15:59;;;;;;;2.78;1.48;;;0.70;99.90;;;;;;20854877;28;20040;-79
2021/11/30 04:26:00;;;;;;;2.00;1.10;;;0.80;99.90;;;;;;20855635;28;20033;-78
2021/11/30 04:36:01;;;;;;;8.25;1.45;;;0.80;99.90;;;;;;20857870;28;20029;-78
2021/11/30 04:46:18;;;;;;;5.30;1.17;;;0.80;99.90;;;;;;20831944;28;20083;-74
2021/11/30 04:56:19;;;;;;;3.75;1.27;;;0.80;99.90;;;;;;20823619;28;20029;-75
2021/11/30 05:06:20;;;;;;;4.25;1.42;;;0.90;99.90;;;;;;20823167;28;20099;-74
2021/11/30 05:16:21;;;;;;;4.38;1.67;;;0.90;99.90;;;;;;20822809;28;20080;-74
2021/11/30 05:26:22;;;;;;;3.13;1.80;;;0.90;99.90;;;;;;20830986;28;20038;-75
2021/11/30 05:36:23;;;;;;;5.53;2.13;;;0.90;99.90;;;;;;20836558;28;20036;-74
2021/11/30 05:46:24;;;;;;;3.10;2.08;;;0.90;99.90;;;;;;20836063;28;20022;-74
2021/11/30 05:56:25;;;;;;;8.27;3.70;;;0.80;99.90;;;;;;20835030;28;20026;-75
2021/11/30 06:06:37;;;;;;;10.05;5.35;;;0.80;99.90;;;;;;20832599;28;20046;-75
2021/11/30 06:16:37;;;;;;;3.45;2.58;;;0.70;99.90;;;;;;20835212;28;20044;-79
2021/11/30 06:26:38;;;;;;;6.05;2.53;;;0.70;99.90;;;;;;20875072;28;20025;-81
2021/11/30 06:36:39;;;;;;;3.00;2.30;;;0.60;99.90;;;;;;20884424;28;20052;-80
2021/11/30 06:46:40;;;;;;;5.25;2.30;;;0.70;99.90;;;;;;20871799;28;20064;-79
2021/11/30 06:56:41;;;;;;;6.28;2.90;;;0.80;99.90;;;;;;20796379;28;20033;-79
2021/11/30 07:16:47;;;;;;;3.95;2.72;;;1.00;99.90;;;;;;20790090;28;20045;-79
2021/11/30 07:26:48;;;;;;;4.88;2.80;;;1.10;99.90;;;;;;20788245;28;20518;-79
2021/11/30 07:36:48;;;;;;;9.10;3.33;;;1.10;99.90;;;;;;20785386;28;20026;-79
2021/11/30 07:46:50;;;;;;;5.80;3.00;;;1.00;99.90;;;;;;20784604;28;20034;-79
2021/11/30 07:56:50;;;;;;;4.22;2.78;;;1.10;99.90;;;;;;20790178;28;20036;-78
2021/11/30 08:06:51;;;;;;;6.38;2.90;;;1.20;99.90;;;;;;20784638;23;20046;-77
2021/11/30 08:16:52;;;;;;;5.63;2.78;;;1.20;99.90;;;;;;20762507;28;20033;-78
2021/11/30 08:26:53;;;;;;;10.85;2.80;;;1.30;99.90;;;;;;20818318;28;20116;-76
2021/11/30 08:36:54;;;;;;;6.55;3.70;;;1.10;99.90;;;;;;20754052;28;20053;-77
2021/11/30 08:46:56;;;;;;;7.28;3.10;;;1.10;99.90;;;;;;20721609;28;20030;-76
2021/11/30 08:56:58;;;;;;;4.22;3.15;;;1.00;99.90;;;;;;20725405;28;20026;-77
2021/11/30 09:06:59;;;;;;;6.15;3.17;;;1.00;99.90;;;;;;20730527;28;20772;-73
2021/11/30 09:17:00;;;;;;;6.82;3.53;;;1.10;99.90;;;;;;20740430;28;20083;-77
2021/11/30 09:27:01;;;;;;;9.25;3.78;;;1.20;99.90;;;;;;20743896;28;20029;-74
2021/11/30 09:37:02;;;;;;;5.32;3.33;;;1.30;99.90;;;;;;20743483;28;20056;-75
2021/11/30 09:47:03;;;;;;;6.32;3.42;;;1.40;99.90;;;;;;20743082;28;20500;-74
2021/11/30 09:57:04;;;;;;;5.45;3.13;;;1.50;99.90;;;;;;20753267;28;20025;-74
2021/11/30 10:07:05;;;;;;;8.35;3.15;;;1.50;99.90;;;;;;20752715;28;20488;-76
2021/11/30 10:17:12;;;;;;;4.38;1.85;;;1.70;99.90;;;;;;20749379;28;20142;-75
2021/11/30 10:27:14;;;;;;;2.53;1.63;;;2.00;99.90;;;;;;20753103;28;20051;-75
2021/11/30 10:37:15;;;;;;;1.58;1.30;;;2.30;99.90;;;;;;20751240;28;20403;-73
2021/11/30 10:47:18;;;;;;;2.42;1.10;;;2.30;99.90;;;;;;20750798;28;20026;-74
2021/11/30 10:57:28;;;;;;;4.88;1.40;;;2.50;99.90;;;;;;20750140;28;20108;-75
2021/11/30 11:07:28;;;;;;;1.88;0.90;;;2.70;99.90;;;;;;20747558;28;20037;-76
2021/11/30 11:17:31;;;;;;;1.30;0.95;;;2.80;99.90;;;;;;20750569;28;20519;-76
2021/11/30 11:27:39;;;;;;;2.67;1.00;;;3.00;99.90;;;;;;20750928;28;20084;-76
2021/11/30 11:37:40;;;;;;;2.38;1.20;;;3.10;99.90;;;;;;20746184;28;20045;-76
2021/11/30 11:47:41;;;;;;;1.38;0.98;;;3.10;99.90;;;;;;20747197;28;20360;-75
2021/11/30 11:57:57;;;;;;;1.27;1.15;;;3.00;99.90;;;;;;20737012;28;20125;-76
2021/11/30 12:08:01;;;;;;;3.20;1.42;;;2.90;99.90;;;;;;20741068;28;20072;-75
2021/11/30 12:18:24;;;;;;;6.93;1.63;;;2.80;99.90;;;;;;20746057;28;20034;-75
2021/11/30 12:28:44;;;;;;;2.33;1.40;;;2.70;99.90;;;;;;20740327;28;20480;-75
2021/11/30 12:38:50;;;;;;;2.75;1.40;;;2.60;99.90;;;;;;20752890;28;20491;-75
2021/11/30 12:48:51;;;;;;;2.22;1.70;;;2.60;99.90;;;;;;20756961;28;20056;-74
2021/11/30 12:58:52;;;;;;;4.32;1.90;;;2.40;99.90;;;;;;20758100;28;20030;-74
2021/11/30 13:09:08;;;;;;;5.05;1.88;;;2.30;99.90;;;;;;20755999;28;20113;-73
2021/11/30 13:19:09;;;;;;;4.47;1.50;;;2.30;99.90;;;;;;20756416;28;20030;-73
2021/11/30 13:29:27;;;;;;;7.38;2.67;;;2.20;99.90;;;;;;20755804;28;20034;-74
2021/11/30 13:39:28;;;;;;;8.05;3.83;;;2.00;99.90;;;;;;20760226;28;20038;-72
2021/11/30 13:49:29;;;;;;;8.20;2.47;;;2.00;99.90;;;;;;20754267;28;20124;-74
2021/11/30 13:59:40;;;;;;;5.20;3.05;;;1.60;99.90;;;;;;20753714;28;20388;-74
2021/11/30 14:10:03;;;;;;;5.65;3.05;;;1.40;99.90;;;;;;20772441;23;20076;-75
2021/11/30 14:20:15;;;;;;;7.03;3.40;;;1.30;99.90;;;;;;20815954;28;20106;-76
2021/11/30 14:30:20;;;;;;;8.65;4.30;;;1.20;99.90;;;;;;20831497;28;20091;-76
2021/11/30 14:40:23;;;;;;;12.05;4.18;;;1.00;99.90;;;;;;20829605;28;20113;-75
2021/11/30 14:50:24;;;;;;;7.50;4.53;;;0.90;99.90;;;;;;20830488;28;20511;-75
2021/11/30 15:00:44;;;;;;;13.85;5.50;;;0.90;99.90;;;;;;20828645;28;20571;-75
2021/11/30 15:11:03;;;;;;;8.63;4.83;;;0.80;99.90;;;;;;20829399;28;20040;-76
2021/11/30 15:21:05;;;;;;;10.40;5.97;;;0.70;99.90;;;;;;20817444;28;20034;-76
2021/11/30 15:31:06;;;;;;;18.15;7.75;;;0.70;99.90;;;;;;20810046;28;20033;-76
2021/11/30 15:41:07;;;;;;;15.13;7.00;;;0.70;99.90;;;;;;20828607;28;20028;-77
2021/11/30 15:51:22;;;;;;;22.02;9.82;;;0.70;99.90;;;;;;20827541;28;20054;-76
2021/11/30 16:01:23;;;;;;;17.35;8.50;;;0.60;99.90;;;;;;20825360;28;20064;-76
2021/11/30 16:11:31;;;;;;;17.70;7.95;;;0.60;99.90;;;;;;20825950;28;20033;-76
2021/11/30 16:21:32;;;;;;;18.25;9.27;;;0.60;99.90;;;;;;20825106;28;20026;-76
2021/11/30 16:31:35;;;;;;;27.23;11.48;;;0.60;99.90;;;;;;20807973;28;20481;-76
2021/11/30 16:41:37;;;;;;;20.27;10.40;;;0.60;99.90;;;;;;20828104;28;20033;-76
2021/11/30 16:51:38;;;;;;;26.50;12.18;;;0.50;99.90;;;;;;20810548;28;20124;-77
2021/11/30 17:01:40;;;;;;;18.90;9.93;;;0.50;99.90;;;;;;20830093;28;20059;-77
2021/11/30 17:11:42;;;;;;;16.10;7.88;;;0.60;99.90;;;;;;20827667;28;20044;-77
2021/11/30 17:21:49;;;;;;;12.55;6.68;;;0.70;99.90;;;;;;20831225;28;20108;-77
2021/11/30 17:31:51;;;;;;;17.30;9.80;;;0.90;99.90;;;;;;20836284;28;20380;-77
2021/11/30 17:41:52;;;;;;;15.70;7.80;;;0.70;99.90;;;;;;20816787;28;20038;-76
2021/11/30 17:51:59;;;;;;;19.08;8.85;;;0.90;99.90;;;;;;20673015;28;20077;-76
2021/11/30 18:02:00;;;;;;;23.48;9.70;;;0.90;99.90;;;;;;20672277;28;20048;-76
2021/11/30 18:12:05;;;;;;;19.30;10.05;;;0.90;99.90;;;;;;20670201;28;20397;-76
2021/11/30 18:22:07;;;;;;;16.90;9.45;;;0.90;99.90;;;;;;20733222;28;20034;-76
2021/11/30 18:32:08;;;;;;;13.50;6.95;;;1.00;99.90;;;;;;20680571;28;20388;-76
2021/11/30 18:42:11;;;;;;;16.23;8.50;;;1.20;99.90;;;;;;20750088;28;20120;-76
2021/11/30 18:52:12;;;;;;;21.85;10.27;;;1.10;99.90;;;;;;20749096;28;20042;-75
2021/11/30 19:02:13;;;;;;;25.23;11.18;;;1.00;99.90;;;;;;20731038;28;20034;-74
2021/11/30 19:12:14;;;;;;;19.77;9.38;;;0.90;99.90;;;;;;20747583;28;20523;-76
2021/11/30 19:22:15;;;;;;;19.35;8.95;;;0.90;99.90;;;;;;20746753;28;20125;-75
2021/11/30 19:32:17;;;;;;;17.35;9.82;;;1.10;99.90;;;;;;20746359;28;20030;-75
2021/11/30 19:42:22;;;;;;;18.02;9.55;;;1.00;99.90;;;;;;20745116;28;20041;-75
2021/11/30 19:52:25;;;;;;;34.65;14.52;;;1.00;99.90;;;;;;20744040;28;20041;-75
2021/11/30 20:12:46;;;;;;;31.48;11.65;;;1.10;99.90;;;;;;20768961;23;20065;-75
2021/11/30 20:22:50;;;;;;;25.15;11.57;;;1.20;99.90;;;;;;20743115;28;20041;-75
2021/11/30 20:32:52;;;;;;;19.20;9.52;;;1.30;99.90;;;;;;20742422;28;20046;-75
2021/11/30 20:42:53;;;;;;;31.90;14.45;;;1.30;99.90;;;;;;20742370;28;20352;-75
2021/11/30 20:52:54;;;;;;;16.05;9.27;;;1.40;99.90;;;;;;20745911;28;20033;-76
2021/11/30 21:02:56;;;;;;;16.48;7.95;;;1.40;99.90;;;;;;20757717;28;20040;-75
2021/11/30 21:12:58;;;;;;;14.50;7.75;;;1.60;99.90;;;;;;20756626;28;20124;-75
2021/11/30 21:23:02;;;;;;;12.40;6.55;;;1.60;99.90;;;;;;20755881;28;20392;-75
2021/11/30 21:33:03;;;;;;;10.50;6.40;;;1.80;99.90;;;;;;20755336;28;20052;-76
2021/11/30 21:43:06;;;;;;;9.95;5.20;;;1.90;99.90;;;;;;20754287;28;20026;-73
2021/11/30 21:53:09;;;;;;;11.82;5.70;;;1.90;99.90;;;;;;20754510;28;20512;-75
2021/11/30 22:03:10;;;;;;;11.45;6.15;;;1.80;99.90;;;;;;20755632;28;20038;-76
2021/11/30 22:13:11;;;;;;;10.45;6.07;;;1.90;99.90;;;;;;20755940;28;20506;-76
2021/11/30 22:23:15;;;;;;;10.48;5.82;;;1.90;99.90;;;;;;20794240;28;21288;-76
2021/11/30 22:33:16;;;;;;;13.15;7.13;;;1.80;99.90;;;;;;20756761;28;20033;-75
2021/11/30 22:43:17;;;;;;;10.20;6.53;;;2.00;99.90;;;;;;20754681;28;20079;-75
2021/11/30 22:53:18;;;;;;;13.70;7.70;;;2.10;99.90;;;;;;20755757;28;20036;-75
2021/11/30 23:03:20;;;;;;;19.05;9.95;;;2.20;99.90;;;;;;20752685;28;20136;-77
2021/11/30 23:13:22;;;;;;;18.83;9.40;;;2.10;99.90;;;;;;20753711;28;20097;-76
2021/11/30 23:23:28;;;;;;;17.55;9.70;;;2.10;99.90;;;;;;20750243;28;20654;-76
2021/11/30 23:33:33;;;;;;;15.63;7.90;;;2.20;99.90;;;;;;20752622;28;20091;-76
2021/11/30 23:43:34;;;;;;;10.27;6.90;;;2.20;99.90;;;;;;20752469;28;20775;-76
2021/11/30 23:53:35;;;;;;;13.95;7.82;;;2.20;99.90;;;;;;20750644;28;20030;-76
